Time,TemperatureF,DewpointF,PressureIn,WindDirection,WindDirectionDegrees,WindSpeedMPH,WindSpeedGustMPH,Humidity,HourlyPrecipIn,Conditions,Clouds,dailyrainin,SoftwareType,DateUTC
2013-06-01 00:31:00,64.6,61.0,29.51,SE,135,0.0,0.0,88,0.00,,,0.00,WUHU21623XXSP,2013-06-01 05:31:00,
2013-06-01 01:31:00,63.7,60.4,29.48,NE,45,0.0,0.0,89,0.00,,,0.00,WUHU21623XXSP,2013-06-01 06:31:00,
2013-06-01 02:31:00,65.8,62.8,29.48,SE,135,2.9,2.9,90,0.00,,,0.00,WUHU21623XXSP,2013-06-01 07:31:00,
2013-06-01 03:31:00,66.7,64.0,29.48,ESE,113,4.7,4.7,91,0.00,,,0.00,WUHU21623XXSP,2013-06-01 08:31:00,
2013-06-01 04:31:00,66.4,63.7,29.46,SSW,203,0.0,0.0,91,0.00,,,0.00,WUHU21623XXSP,2013-06-01 09:31:00,
2013-06-01 05:31:00,66.6,64.2,29.48,SW,225,0.0,0.0,92,0.00,,,0.12,WUHU21623XXSP,2013-06-01 10:31:00,
2013-06-01 06:31:00,67.6,65.2,29.49,SE,135,0.0,0.0,92,0.00,,,0.12,WUHU21623XXSP,2013-06-01 11:31:00,
2013-06-01 07:28:00,71.2,67.8,29.49,South,180,0.0,0.0,89,0.00,,,0.12,WUHU21623XXSP,2013-06-01 12:28:00,
2013-06-01 07:33:00,71.2,67.2,29.48,SE,135,0.0,4.5,87,0.00,,,0.12,WUHU21623XXSP,2013-06-01 12:33:00,
2013-06-01 07:38:00,71.4,67.3,29.49,SE,135,0.0,4.5,87,0.00,,,0.12,WUHU21623XXSP,2013-06-01 12:38:00,
2013-06-01 07:43:00,71.8,67.7,29.49,SSE,157,3.8,4.0,87,0.00,,,0.12,WUHU21623XXSP,2013-06-01 12:43:00,
2013-06-01 07:48:00,72.7,67.7,29.49,SSE,157,3.8,4.0,84,0.00,,,0.12,WUHU21623XXSP,2013-06-01 12:48:00,
2013-06-01 07:53:00,73.2,68.1,29.48,SE,135,2.0,3.8,84,0.00,,,0.12,WUHU21623XXSP,2013-06-01 12:53:00,
2013-06-01 07:58:00,73.4,67.6,29.49,SW,225,0.0,2.0,82,0.00,,,0.12,WUHU21623XXSP,2013-06-01 12:58:00,
2013-06-01 08:03:00,73.4,67.4,29.49,SE,135,1.3,2.0,82,0.00,,,0.12,WUHU21623XXSP,2013-06-01 13:03:00,
2013-06-01 08:08:00,73.6,67.8,29.49,SE,135,2.2,3.4,82,0.00,,,0.12,WUHU21623XXSP,2013-06-01 13:08:00,
2013-06-01 08:13:00,73.9,67.8,29.49,SE,135,3.1,4.5,81,0.00,,,0.12,WUHU21623XXSP,2013-06-01 13:13:00,
2013-06-01 08:18:00,74.5,68.3,29.49,ESE,112,2.7,4.5,81,0.00,,,0.12,WUHU21623XXSP,2013-06-01 13:18:00,
2013-06-01 08:23:00,75.4,69.2,29.49,SE,135,4.0,5.1,81,0.00,,,0.12,WUHU21623XXSP,2013-06-01 13:23:00,
2013-06-01 08:28:00,75.9,69.0,29.49,ESE,112,6.5,6.5,79,0.00,,,0.12,WUHU21623XXSP,2013-06-01 13:28:00,
2013-06-01 08:33:00,75.4,67.7,29.50,SE,135,5.6,6.5,77,0.00,,,0.12,WUHU21623XXSP,2013-06-01 13:33:00,
2013-06-01 08:38:00,75.2,67.4,29.50,SE,135,5.1,6.5,77,0.00,,,0.12,WUHU21623XXSP,2013-06-01 13:38:00,
2013-06-01 08:43:00,75.4,67.3,29.50,SE,135,3.1,5.1,76,0.00,,,0.12,WUHU21623XXSP,2013-06-01 13:43:00,
2013-06-01 08:48:00,74.3,65.9,29.51,ESE,112,1.8,5.1,75,0.00,,,0.12,WUHU21623XXSP,2013-06-01 13:48:00,
2013-06-01 08:54:00,74.1,66.5,29.51,SE,135,1.8,1.8,77,0.00,,,0.12,WUHU21623XXSP,2013-06-01 13:54:00,
2013-06-01 08:59:00,75.0,67.2,29.51,ESE,112,3.4,3.4,76,0.00,,,0.12,WUHU21623XXSP,2013-06-01 13:59:00,
2013-06-01 09:04:00,75.6,67.3,29.50,WSW,247,3.6,3.6,76,0.00,,,0.12,WUHU21623XXSP,2013-06-01 14:04:00,
2013-06-01 09:09:00,75.9,67.4,29.51,West,270,4.7,4.7,75,0.00,,,0.12,WUHU21623XXSP,2013-06-01 14:09:00,
2013-06-01 09:14:00,76.3,67.4,29.51,West,270,1.6,5.1,74,0.00,,,0.12,WUHU21623XXSP,2013-06-01 14:14:00,
2013-06-01 09:19:00,76.5,67.6,29.51,ESE,112,6.0,6.0,74,0.00,,,0.12,WUHU21623XXSP,2013-06-01 14:19:00,
2013-06-01 09:24:00,76.6,67.3,29.51,SE,135,3.6,6.0,73,0.00,,,0.12,WUHU21623XXSP,2013-06-01 14:24:00,
2013-06-01 09:29:00,76.8,67.3,29.51,ESE,112,2.0,6.0,73,0.00,,,0.12,WUHU21623XXSP,2013-06-01 14:29:00,
2013-06-01 09:34:00,77.4,67.6,29.51,SW,225,4.0,4.0,72,0.00,,,0.12,WUHU21623XXSP,2013-06-01 14:34:00,
2013-06-01 09:39:00,77.4,67.5,29.51,West,270,0.0,4.0,73,0.00,,,0.12,WUHU21623XXSP,2013-06-01 14:39:00,
2013-06-01 09:44:00,78.1,68.3,29.51,ESE,112,1.6,1.6,72,0.00,,,0.12,WUHU21623XXSP,2013-06-01 14:44:00,
2013-06-01 09:49:00,78.6,68.0,29.51,SE,135,4.5,8.5,70,0.00,,,0.12,WUHU21623XXSP,2013-06-01 14:49:00,
2013-06-01 09:54:00,78.4,67.0,29.52,SE,135,0.0,8.5,68,0.00,,,0.12,WUHU21623XXSP,2013-06-01 14:54:00,
2013-06-01 09:59:00,78.1,66.2,29.51,SE,135,5.1,6.5,67,0.00,,,0.12,WUHU21623XXSP,2013-06-01 14:59:00,
2013-06-01 10:04:00,77.4,66.0,29.51,NW,315,0.0,8.1,68,0.00,,,0.12,WUHU21623XXSP,2013-06-01 15:04:00,
2013-06-01 10:09:00,77.4,66.4,29.51,SE,135,4.7,8.1,69,0.00,,,0.12,WUHU21623XXSP,2013-06-01 15:09:00,
2013-06-01 10:14:00,77.7,66.8,29.51,SE,135,7.6,7.6,69,0.00,,,0.12,WUHU21623XXSP,2013-06-01 15:14:00,
2013-06-01 10:19:00,77.9,66.9,29.52,ESE,112,2.5,7.6,69,0.00,,,0.12,WUHU21623XXSP,2013-06-01 15:19:00,
2013-06-01 10:24:00,78.4,67.9,29.51,SE,135,3.8,7.6,70,0.00,,,0.12,WUHU21623XXSP,2013-06-01 15:24:00,
2013-06-01 10:29:00,78.6,67.6,29.51,WSW,247,6.0,6.0,68,0.00,,,0.12,WUHU21623XXSP,2013-06-01 15:29:00,
2013-06-01 10:34:00,78.8,67.3,29.51,ESE,112,5.4,6.0,68,0.00,,,0.12,WUHU21623XXSP,2013-06-01 15:34:00,
2013-06-01 10:39:00,78.6,66.7,29.51,SE,135,4.0,10.1,67,0.00,,,0.12,WUHU21623XXSP,2013-06-01 15:39:00,
2013-06-01 10:44:00,78.6,66.7,29.51,SSE,157,6.9,10.1,67,0.00,,,0.12,WUHU21623XXSP,2013-06-01 15:44:00,
2013-06-01 10:49:00,78.4,66.5,29.51,SE,135,6.5,6.9,67,0.00,,,0.12,WUHU21623XXSP,2013-06-01 15:49:00,
2013-06-01 10:54:00,78.6,67.6,29.51,ESE,112,8.1,8.1,67,0.00,,,0.12,WUHU21623XXSP,2013-06-01 15:54:00,
2013-06-01 10:59:00,78.6,66.7,29.51,ESE,112,5.8,8.1,67,0.00,,,0.12,WUHU21623XXSP,2013-06-01 15:59:00,
2013-06-01 11:04:00,78.4,66.7,29.51,SE,135,1.8,5.8,66,0.00,,,0.12,WUHU21623XXSP,2013-06-01 16:04:00,
2013-06-01 11:09:00,78.4,66.1,29.51,SE,135,9.6,9.6,66,0.00,,,0.12,WUHU21623XXSP,2013-06-01 16:09:00,
2013-06-01 11:14:00,78.1,65.8,29.51,ESE,112,4.0,9.6,66,0.00,,,0.12,WUHU21623XXSP,2013-06-01 16:14:00,
2013-06-01 11:19:00,78.4,66.5,29.51,SE,135,13.9,13.9,67,0.00,,,0.12,WUHU21623XXSP,2013-06-01 16:19:00,
2013-06-01 11:24:00,78.6,66.3,29.51,SE,135,7.8,13.9,66,0.00,,,0.12,WUHU21623XXSP,2013-06-01 16:24:00,
2013-06-01 11:29:00,79.0,66.6,29.51,SSE,157,6.9,7.8,66,0.00,,,0.12,WUHU21623XXSP,2013-06-01 16:29:00,
2013-06-01 11:35:00,79.2,66.4,29.51,ESE,112,10.3,10.3,65,0.00,,,0.12,WUHU21623XXSP,2013-06-01 16:35:00,
2013-06-01 11:40:00,79.2,66.4,29.51,SE,135,5.1,10.3,65,0.00,,,0.12,WUHU21623XXSP,2013-06-01 16:40:00,
2013-06-01 11:45:00,79.0,66.2,29.51,SE,135,5.1,5.1,65,0.00,,,0.12,WUHU21623XXSP,2013-06-01 16:45:00,
2013-06-01 11:50:00,79.0,66.2,29.51,WSW,247,11.0,11.0,65,0.00,,,0.12,WUHU21623XXSP,2013-06-01 16:50:00,
2013-06-01 11:55:00,78.8,65.6,29.51,SSE,157,5.8,11.0,64,0.00,,,0.12,WUHU21623XXSP,2013-06-01 16:55:00,
2013-06-01 12:00:00,78.6,65.6,29.51,SE,135,9.2,9.2,64,0.00,,,0.12,WUHU21623XXSP,2013-06-01 17:00:00,
2013-06-01 12:05:00,79.0,65.8,29.51,SE,135,7.8,16.1,64,0.00,,,0.12,WUHU21623XXSP,2013-06-01 17:05:00,
2013-06-01 12:10:00,79.0,65.8,29.51,SE,135,10.3,16.1,64,0.00,,,0.12,WUHU21623XXSP,2013-06-01 17:10:00,
2013-06-01 12:15:00,79.0,65.8,29.51,SE,135,3.8,10.3,64,0.00,,,0.12,WUHU21623XXSP,2013-06-01 17:15:00,
2013-06-01 12:20:00,78.4,65.0,29.51,SE,135,2.0,6.5,64,0.00,,,0.12,WUHU21623XXSP,2013-06-01 17:20:00,
2013-06-01 12:25:00,78.1,64.9,29.51,ESE,112,5.4,11.9,64,0.00,,,0.12,WUHU21623XXSP,2013-06-01 17:25:00,
2013-06-01 12:30:00,78.1,64.9,29.50,SE,135,8.9,11.9,64,0.00,,,0.12,WUHU21623XXSP,2013-06-01 17:30:00,
2013-06-01 12:35:00,78.4,65.7,29.50,SE,135,4.5,10.7,65,0.00,,,0.12,WUHU21623XXSP,2013-06-01 17:35:00,
2013-06-01 12:40:00,78.4,65.2,29.50,ESE,112,8.5,9.6,64,0.00,,,0.12,WUHU21623XXSP,2013-06-01 17:40:00,
2013-06-01 12:45:00,78.4,65.7,29.51,SE,135,8.7,9.6,65,0.00,,,0.12,WUHU21623XXSP,2013-06-01 17:45:00,
2013-06-01 12:50:00,78.6,65.4,29.50,SE,135,10.1,10.1,64,0.00,,,0.12,WUHU21623XXSP,2013-06-01 17:50:00,
2013-06-01 12:55:00,78.6,65.4,29.51,SSE,157,3.4,10.1,64,0.00,,,0.12,WUHU21623XXSP,2013-06-01 17:55:00,
2013-06-01 13:00:00,78.6,65.0,29.50,SE,135,7.8,7.8,63,0.00,,,0.12,WUHU21623XXSP,2013-06-01 18:00:00,
2013-06-01 13:05:00,78.6,65.4,29.50,ESE,112,2.0,8.1,64,0.00,,,0.12,WUHU21623XXSP,2013-06-01 18:05:00,
2013-06-01 13:10:00,78.6,64.5,29.50,ESE,112,2.0,8.1,62,0.00,,,0.12,WUHU21623XXSP,2013-06-01 18:10:00,
2013-06-01 13:15:00,78.6,64.5,29.50,ESE,112,2.0,2.0,61,0.00,,,0.12,WUHU21623XXSP,2013-06-01 18:15:00,
2013-06-01 13:20:00,78.4,63.9,29.51,South,180,1.3,2.0,62,0.00,,,0.12,WUHU21623XXSP,2013-06-01 18:20:00,
2013-06-01 13:25:00,78.4,63.9,29.50,ESE,112,4.7,4.7,62,0.00,,,0.12,WUHU21623XXSP,2013-06-01 18:25:00,
2013-06-01 13:30:00,78.6,63.9,29.50,SE,135,6.7,13.6,61,0.00,,,0.12,WUHU21623XXSP,2013-06-01 18:30:00,
2013-06-01 13:32:00,78.6,64.1,29.50,NE,45,2.9,13.6,61,0.00,,,0.12,WUHU21623XXSP,2013-06-01 18:32:00,
2013-06-01 14:14:00,77.7,63.2,29.49,NW,315,3.6,3.6,61,0.00,,,0.12,WUHU21623XXSP,2013-06-01 19:14:00,
2013-06-01 14:19:00,77.9,63.4,29.48,SE,135,14.1,14.1,62,0.00,,,0.12,WUHU21623XXSP,2013-06-01 19:19:00,
2013-06-01 14:24:00,78.3,63.8,29.48,SE,135,10.7,14.1,61,0.00,,,0.12,WUHU21623XXSP,2013-06-01 19:24:00,
2013-06-01 14:29:00,78.3,63.8,29.48,SE,135,4.0,10.7,61,0.00,,,0.12,WUHU21623XXSP,2013-06-01 19:29:00,
2013-06-01 14:34:00,78.4,64.4,29.48,SE,135,10.7,10.7,62,0.00,,,0.12,WUHU21623XXSP,2013-06-01 19:34:00,
2013-06-01 14:39:00,78.4,64.4,29.48,SE,135,10.7,10.7,63,0.00,,,0.12,WUHU21623XXSP,2013-06-01 19:39:00,
2013-06-01 14:44:00,78.6,65.0,29.49,SE,135,8.3,10.7,63,0.00,,,0.12,WUHU21623XXSP,2013-06-01 19:44:00,
2013-06-01 14:49:00,78.4,64.4,29.49,East,90,4.0,10.7,62,0.00,,,0.12,WUHU21623XXSP,2013-06-01 19:49:00,
2013-06-01 14:55:00,78.4,64.8,29.48,ESE,112,6.7,7.8,63,0.00,,,0.12,WUHU21623XXSP,2013-06-01 19:55:00,
2013-06-01 15:00:00,78.6,65.0,29.48,SE,135,7.6,9.2,63,0.00,,,0.12,WUHU21623XXSP,2013-06-01 20:00:00,
2013-06-01 15:05:00,79.0,65.3,29.48,SE,135,2.0,9.2,63,0.00,,,0.12,WUHU21623XXSP,2013-06-01 20:05:00,
2013-06-01 15:10:00,79.0,65.3,29.48,SSE,157,4.9,4.9,63,0.00,,,0.12,WUHU21623XXSP,2013-06-01 20:10:00,
2013-06-01 15:15:00,78.6,65.3,29.48,WNW,292,1.6,4.9,62,0.00,,,0.12,WUHU21623XXSP,2013-06-01 20:15:00,
2013-06-01 15:20:00,78.1,64.4,29.48,SE,135,6.0,6.0,63,0.00,,,0.12,WUHU21623XXSP,2013-06-01 20:20:00,
2013-06-01 15:25:00,78.1,64.5,29.48,SSE,157,7.2,7.2,64,0.00,,,0.12,WUHU21623XXSP,2013-06-01 20:25:00,
2013-06-01 15:30:00,78.4,65.2,29.48,ESE,112,4.7,7.2,63,0.00,,,0.12,WUHU21623XXSP,2013-06-01 20:30:00,
2013-06-01 15:35:00,78.8,65.6,29.47,ESE,112,7.8,8.1,64,0.00,,,0.12,WUHU21623XXSP,2013-06-01 20:35:00,
2013-06-01 15:40:00,79.0,64.9,29.48,SE,135,6.0,8.1,62,0.00,,,0.12,WUHU21623XXSP,2013-06-01 20:40:00,
2013-06-01 15:45:00,78.6,64.5,29.48,SE,135,5.8,7.8,62,0.00,,,0.12,WUHU21623XXSP,2013-06-01 20:45:00,
2013-06-01 15:50:00,78.6,65.4,29.47,SE,135,4.7,5.8,64,0.00,,,0.12,WUHU21623XXSP,2013-06-01 20:50:00,
2013-06-01 15:55:00,78.6,65.0,29.47,ESE,112,11.6,11.6,62,0.00,,,0.12,WUHU21623XXSP,2013-06-01 20:55:00,
2013-06-01 16:00:00,78.4,63.5,29.47,SE,135,1.3,11.6,60,0.00,,,0.12,WUHU21623XXSP,2013-06-01 21:00:00,
2013-06-01 16:05:00,78.4,63.9,29.47,SE,135,4.5,10.3,61,0.00,,,0.12,WUHU21623XXSP,2013-06-01 21:05:00,
2013-06-01 16:10:00,78.6,64.1,29.47,ESE,112,11.4,11.4,61,0.00,,,0.12,WUHU21623XXSP,2013-06-01 21:10:00,
2013-06-01 16:15:00,78.6,64.1,29.47,SE,135,7.6,11.4,61,0.00,,,0.12,WUHU21623XXSP,2013-06-01 21:15:00,
2013-06-01 16:20:00,78.6,63.2,29.47,ESE,112,8.7,13.6,59,0.00,,,0.12,WUHU21623XXSP,2013-06-01 21:20:00,
2013-06-01 16:25:00,78.6,63.7,29.47,SSE,157,3.1,13.4,60,0.00,,,0.12,WUHU21623XXSP,2013-06-01 21:25:00,
2013-06-01 16:30:00,78.6,64.1,29.46,SE,135,7.8,7.8,61,0.00,,,0.12,WUHU21623XXSP,2013-06-01 21:30:00,
2013-06-01 16:35:00,78.6,64.1,29.47,ESE,112,9.6,11.0,61,0.00,,,0.12,WUHU21623XXSP,2013-06-01 21:35:00,
2013-06-01 16:40:00,78.4,63.9,29.46,ESE,112,7.6,11.0,61,0.00,,,0.12,WUHU21623XXSP,2013-06-01 21:40:00,
2013-06-01 16:45:00,78.4,64.4,29.46,ESE,112,8.1,9.6,62,0.00,,,0.12,WUHU21623XXSP,2013-06-01 21:45:00,
2013-06-01 16:50:00,78.3,64.4,29.46,SE,135,9.8,9.8,62,0.00,,,0.12,WUHU21623XXSP,2013-06-01 21:50:00,
2013-06-01 16:55:00,78.1,64.0,29.46,WSW,247,1.6,9.8,62,0.00,,,0.12,WUHU21623XXSP,2013-06-01 21:55:00,
2013-06-01 17:00:00,77.9,63.6,29.46,ESE,112,4.3,9.6,62,0.00,,,0.12,WUHU21623XXSP,2013-06-01 22:00:00,
2013-06-01 17:05:00,77.7,63.7,29.46,SSW,202,1.3,9.6,62,0.00,,,0.12,WUHU21623XXSP,2013-06-01 22:05:00,
2013-06-01 17:10:00,77.7,64.1,29.45,NW,315,0.0,2.2,63,0.00,,,0.12,WUHU21623XXSP,2013-06-01 22:10:00,
2013-06-01 17:15:00,77.7,63.7,29.46,SSE,157,2.9,9.6,62,0.00,,,0.12,WUHU21623XXSP,2013-06-01 22:15:00,
2013-06-01 17:31:00,77.2,63.4,29.46,SE,135,10.7,10.7,62,0.00,,,0.12,WUHU21623XXSP,2013-06-01 22:31:00,
2013-06-01 17:42:00,76.8,62.8,29.45,West,270,2.5,2.5,62,0.00,,,0.12,WUHU21623XXSP,2013-06-01 22:42:00,
2013-06-01 17:47:00,76.8,62.8,29.45,SSW,202,0.0,3.6,62,0.00,,,0.12,WUHU21623XXSP,2013-06-01 22:47:00,
2013-06-01 17:52:00,76.8,62.8,29.45,SSE,157,2.9,3.6,62,0.00,,,0.12,WUHU21623XXSP,2013-06-01 22:52:00,
2013-06-01 17:57:00,77.0,63.0,29.45,East,90,4.0,4.0,62,0.00,,,0.12,WUHU21623XXSP,2013-06-01 22:57:00,
2013-06-01 18:02:00,77.5,63.5,29.45,ESE,112,3.6,4.0,62,0.00,,,0.12,WUHU21623XXSP,2013-06-01 23:02:00,
2013-06-01 18:07:00,77.5,63.5,29.45,SE,135,2.5,3.6,62,0.00,,,0.12,WUHU21623XXSP,2013-06-01 23:07:00,
2013-06-01 18:12:00,77.5,63.5,29.45,SE,135,3.6,3.6,62,0.00,,,0.12,WUHU21623XXSP,2013-06-01 23:12:00,
2013-06-01 18:17:00,77.0,63.0,29.44,ESE,112,2.2,4.7,62,0.00,,,0.12,WUHU21623XXSP,2013-06-01 23:17:00,
2013-06-01 18:22:00,76.8,63.2,29.44,SE,135,4.3,4.7,63,0.00,,,0.12,WUHU21623XXSP,2013-06-01 23:22:00,
2013-06-01 18:27:00,77.2,63.6,29.44,SE,135,5.8,5.8,63,0.00,,,0.12,WUHU21623XXSP,2013-06-01 23:27:00,
2013-06-01 18:32:00,77.2,63.6,29.44,SE,135,0.0,8.7,63,0.00,,,0.12,WUHU21623XXSP,2013-06-01 23:32:00,
2013-06-01 18:37:00,77.2,63.6,29.44,SE,135,1.3,8.7,63,0.00,,,0.12,WUHU21623XXSP,2013-06-01 23:37:00,
2013-06-01 18:42:00,76.8,63.2,29.44,ESE,112,6.7,6.7,63,0.00,,,0.12,WUHU21623XXSP,2013-06-01 23:42:00,
2013-06-01 18:47:00,76.1,62.6,29.44,ESE,112,7.6,7.6,63,0.00,,,0.12,WUHU21623XXSP,2013-06-01 23:47:00,
2013-06-01 18:52:00,75.7,62.7,29.44,North,0,2.0,7.6,64,0.00,,,0.12,WUHU21623XXSP,2013-06-01 23:52:00,
2013-06-01 18:57:00,75.4,62.3,29.44,East,90,2.5,8.5,64,0.00,,,0.12,WUHU21623XXSP,2013-06-01 23:57:00,
2013-06-01 19:02:00,74.8,62.3,29.44,ESE,112,3.8,8.5,65,0.00,,,0.12,WUHU21623XXSP,2013-06-02 00:02:00,
2013-06-01 19:07:00,74.5,62.3,29.44,SE,135,5.8,5.8,66,0.00,,,0.12,WUHU21623XXSP,2013-06-02 00:07:00,
2013-06-01 19:12:00,74.5,62.3,29.43,ESE,112,4.9,5.8,66,0.00,,,0.12,WUHU21623XXSP,2013-06-02 00:12:00,
2013-06-01 19:17:00,74.1,62.5,29.42,SE,135,5.8,7.2,67,0.00,,,0.12,WUHU21623XXSP,2013-06-02 00:17:00,
2013-06-01 19:22:00,73.9,62.3,29.43,SE,135,3.1,7.2,67,0.00,,,0.12,WUHU21623XXSP,2013-06-02 00:22:00,
2013-06-01 19:27:00,73.8,62.6,29.43,SE,135,2.9,4.9,68,0.00,,,0.12,WUHU21623XXSP,2013-06-02 00:27:00,
2013-06-01 19:33:00,73.2,62.1,29.43,SSE,157,7.6,7.6,68,0.00,,,0.12,WUHU21623XXSP,2013-06-02 00:33:00,
2013-06-01 19:38:00,73.0,62.3,29.43,ESE,112,3.1,7.6,69,0.00,,,0.12,WUHU21623XXSP,2013-06-02 00:38:00,
2013-06-01 19:43:00,72.3,62.4,29.43,ESE,112,6.9,6.9,71,0.00,,,0.12,WUHU21623XXSP,2013-06-02 00:43:00,
2013-06-01 19:48:00,72.0,62.1,29.44,SE,135,10.1,10.1,71,0.00,,,0.12,WUHU21623XXSP,2013-06-02 00:48:00,
2013-06-01 19:53:00,71.4,61.2,29.43,ESE,112,4.3,10.1,70,0.00,,,0.12,WUHU21623XXSP,2013-06-02 00:53:00,
2013-06-01 19:58:00,70.5,60.6,29.43,ENE,67,0.0,8.7,71,0.00,,,0.12,WUHU21623XXSP,2013-06-02 00:58:00,
2013-06-01 20:03:00,70.0,60.5,29.43,SW,225,0.0,2.0,71,0.00,,,0.12,WUHU21623XXSP,2013-06-02 01:03:00,
2013-06-01 20:08:00,69.4,60.4,29.44,WSW,247,0.0,0.0,73,0.00,,,0.12,WUHU21623XXSP,2013-06-02 01:08:00,
2013-06-01 20:13:00,68.5,60.3,29.46,WSW,247,0.0,4.0,75,0.00,,,0.12,WUHU21623XXSP,2013-06-02 01:13:00,
2013-06-01 20:18:00,67.8,60.4,29.46,WSW,247,0.0,4.0,77,0.00,,,0.12,WUHU21623XXSP,2013-06-02 01:18:00,
2013-06-01 20:23:00,66.9,60.6,29.46,West,270,4.5,4.5,80,0.00,,,0.12,WUHU21623XXSP,2013-06-02 01:23:00,
2013-06-01 20:28:00,65.5,60.2,29.46,West,270,0.0,6.5,83,0.02,,,0.12,WUHU21623XXSP,2013-06-02 01:28:00,
2013-06-01 20:33:00,64.9,59.6,29.46,WNW,292,0.0,6.5,83,0.02,,,0.14,WUHU21623XXSP,2013-06-02 01:33:00,
2013-06-01 20:38:00,64.6,59.5,29.46,West,270,0.0,0.0,84,0.02,,,0.14,WUHU21623XXSP,2013-06-02 01:38:00,
2013-06-01 20:43:00,64.6,60.0,29.46,SSW,202,0.0,0.9,85,0.02,,,0.14,WUHU21623XXSP,2013-06-02 01:43:00,
2013-06-01 20:48:00,64.6,60.0,29.46,WSW,247,0.0,0.9,85,0.02,,,0.14,WUHU21623XXSP,2013-06-02 01:48:00,
2013-06-01 20:53:00,64.4,59.8,29.45,WSW,247,0.0,0.0,85,0.02,,,0.14,WUHU21623XXSP,2013-06-02 01:53:00,
2013-06-01 20:58:00,64.2,60.0,29.46,ESE,112,0.0,0.0,86,0.02,,,0.14,WUHU21623XXSP,2013-06-02 01:58:00,
2013-06-01 21:24:00,64.6,60.7,29.47,ESE,112,2.9,2.9,87,0.02,,,0.14,WUHU21623XXSP,2013-06-02 02:24:00,
2013-06-01 21:29:00,64.6,60.7,29.47,SE,135,0.0,2.9,87,0.00,,,0.14,WUHU21623XXSP,2013-06-02 02:29:00,
2013-06-01 21:34:00,64.6,60.7,29.47,SE,135,0.0,0.0,87,0.00,,,0.14,WUHU21623XXSP,2013-06-02 02:34:00,
2013-06-01 21:39:00,64.6,60.7,29.47,SW,225,0.0,0.0,87,0.00,,,0.14,WUHU21623XXSP,2013-06-02 02:39:00,
2013-06-01 21:44:00,64.6,60.7,29.47,WSW,247,0.0,0.0,87,0.00,,,0.14,WUHU21623XXSP,2013-06-02 02:44:00,
2013-06-01 21:49:00,64.6,60.7,29.47,WSW,247,0.0,0.0,87,0.00,,,0.14,WUHU21623XXSP,2013-06-02 02:49:00,
2013-06-01 21:54:00,64.6,60.7,29.47,NNW,337,0.0,0.0,87,0.00,,,0.14,WUHU21623XXSP,2013-06-02 02:54:00,
2013-06-01 21:59:00,64.6,60.7,29.47,SW,225,0.0,4.0,87,0.00,,,0.14,WUHU21623XXSP,2013-06-02 02:59:00,
2013-06-01 22:04:00,64.8,60.2,29.47,SW,225,0.0,4.0,85,0.00,,,0.14,WUHU21623XXSP,2013-06-02 03:04:00,
2013-06-01 22:09:00,64.9,59.6,29.47,SW,225,2.0,3.1,83,0.00,,,0.14,WUHU21623XXSP,2013-06-02 03:09:00,
2013-06-01 22:14:00,64.9,59.6,29.47,WSW,247,0.0,3.1,83,0.00,,,0.14,WUHU21623XXSP,2013-06-02 03:14:00,
2013-06-01 22:19:00,65.1,59.5,29.47,West,270,0.0,3.1,82,0.00,,,0.14,WUHU21623XXSP,2013-06-02 03:19:00,
2013-06-01 22:24:00,65.1,59.1,29.47,WSW,247,0.0,3.1,81,0.00,,,0.14,WUHU21623XXSP,2013-06-02 03:24:00,
2013-06-01 22:27:00,65.1,58.8,29.47,WSW,247,0.0,1.8,80,0.00,,,0.14,WUHU21623XXSP,2013-06-02 03:27:00,
2013-06-01 22:31:00,65.1,58.8,29.47,WSW,248,0.0,1.8,80,0.00,,,0.02,WUHU21623XXSP,2013-06-02 03:31:00,
2013-06-01 23:31:00,63.1,56.2,29.48,West,270,0.0,0.0,78,0.00,,,0.02,WUHU21623XXSP,2013-06-02 04:31:00,